sensor_id;sensor_type;location;lat;lon;timestamp;pressure;altitude;pressure_sealevel;temperature;humidity
29549;BME280;16487;53.094;8.800;2022-12-18T00:01:21;102287.00;;;-5.95;100.00
29549;BME280;16487;53.094;8.800;2022-12-18T00:03:49;102282.59;;;-5.91;100.00
29549;BME280;16487;53.094;8.800;2022-12-18T00:06:17;102288.63;;;-5.94;100.00
29549;BME280;16487;53.094;8.800;2022-12-18T00:08:45;102292.94;;;-5.93;100.00
29549;BME280;16487;53.094;8.800;2022-12-18T00:11:14;102277.38;;;-5.88;100.00
29549;BME280;16487;53.094;8.800;2022-12-18T00:13:43;102286.91;;;-5.90;100.00
29549;BME280;16487;53.094;8.800;2022-12-18T00:16:12;102285.00;;;-5.90;100.00
29549;BME280;16487;53.094;8.800;2022-12-18T00:18:40;102285.81;;;-5.89;100.00
29549;BME280;16487;53.094;8.800;2022-12-18T00:21:10;102292.84;;;-5.88;100.00
29549;BME280;16487;53.094;8.800;2022-12-18T00:23:39;102292.84;;;-5.88;100.00
29549;BME280;16487;53.094;8.800;2022-12-18T00:26:10;102290.34;;;-5.84;100.00
29549;BME280;16487;53.094;8.800;2022-12-18T00:28:43;102293.16;;;-5.90;100.00
29549;BME280;16487;53.094;8.800;2022-12-18T00:31:12;102283.84;;;-5.83;100.00
29549;BME280;16487;53.094;8.800;2022-12-18T00:33:41;102284.41;;;-5.87;100.00
29549;BME280;16487;53.094;8.800;2022-12-18T00:36:11;102280.91;;;-5.87;100.00
29549;BME280;16487;53.094;8.800;2022-12-18T00:38:39;102289.63;;;-5.90;100.00
29549;BME280;16487;53.094;8.800;2022-12-18T00:41:07;102284.72;;;-5.88;100.00
29549;BME280;16487;53.094;8.800;2022-12-18T00:43:35;102289.06;;;-5.87;100.00
29549;BME280;16487;53.094;8.800;2022-12-18T00:46:05;102294.75;;;-5.89;100.00
29549;BME280;16487;53.094;8.800;2022-12-18T00:48:33;102288.47;;;-5.84;100.00
29549;BME280;16487;53.094;8.800;2022-12-18T00:51:00;102284.31;;;-5.82;100.00
29549;BME280;16487;53.094;8.800;2022-12-18T00:53:27;102286.22;;;-5.82;100.00
29549;BME280;16487;53.094;8.800;2022-12-18T00:55:55;102289.53;;;-5.85;100.00
29549;BME280;16487;53.094;8.800;2022-12-18T00:58:23;102293.44;;;-5.91;100.00
29549;BME280;16487;53.094;8.800;2022-12-18T01:00:50;102303.88;;;-5.98;100.00
29549;BME280;16487;53.094;8.800;2022-12-18T01:03:19;102311.50;;;-6.00;100.00
29549;BME280;16487;53.094;8.800;2022-12-18T01:05:46;102309.88;;;-6.01;100.00
29549;BME280;16487;53.094;8.800;2022-12-18T01:08:13;102313.84;;;-6.12;100.00
29549;BME280;16487;53.094;8.800;2022-12-18T01:10:43;102312.81;;;-6.16;100.00
29549;BME280;16487;53.094;8.800;2022-12-18T01:13:11;102325.59;;;-6.17;100.00
29549;BME280;16487;53.094;8.800;2022-12-18T01:15:39;102326.88;;;-6.14;100.00
29549;BME280;16487;53.094;8.800;2022-12-18T01:18:09;102327.91;;;-6.10;100.00
29549;BME280;16487;53.094;8.800;2022-12-18T01:20:39;102340.69;;;-6.11;100.00
29549;BME280;16487;53.094;8.800;2022-12-18T01:23:06;102332.25;;;-6.09;100.00
29549;BME280;16487;53.094;8.800;2022-12-18T01:25:35;102340.91;;;-6.07;100.00
29549;BME280;16487;53.094;8.800;2022-12-18T01:28:03;102331.16;;;-6.08;100.00
29549;BME280;16487;53.094;8.800;2022-12-18T01:30:31;102331.22;;;-6.13;100.00
29549;BME280;16487;53.094;8.800;2022-12-18T01:32:59;102334.94;;;-6.09;100.00
29549;BME280;16487;53.094;8.800;2022-12-18T01:35:26;102342.53;;;-6.06;100.00
29549;BME280;16487;53.094;8.800;2022-12-18T01:37:55;102350.66;;;-6.06;100.00
29549;BME280;16487;53.094;8.800;2022-12-18T01:40:23;102346.53;;;-6.04;100.00
29549;BME280;16487;53.094;8.800;2022-12-18T01:42:52;102344.66;;;-6.03;100.00
29549;BME280;16487;53.094;8.800;2022-12-18T01:45:25;102349.47;;;-6.00;100.00
29549;BME280;16487;53.094;8.800;2022-12-18T01:47:55;102354.25;;;-6.11;100.00
29549;BME280;16487;53.094;8.800;2022-12-18T01:50:25;102350.66;;;-6.06;100.00
29549;BME280;16487;53.094;8.800;2022-12-18T01:52:56;102353.66;;;-6.08;100.00
29549;BME280;16487;53.094;8.800;2022-12-18T01:55:28;102364.09;;;-6.15;100.00
29549;BME280;16487;53.094;8.800;2022-12-18T01:57:58;102359.50;;;-6.19;100.00
29549;BME280;16487;53.094;8.800;2022-12-18T02:00:27;102352.13;;;-6.14;100.00
29549;BME280;16487;53.094;8.800;2022-12-18T02:02:54;102352.84;;;-6.08;100.00
29549;BME280;16487;53.094;8.800;2022-12-18T02:05:27;102359.97;;;-6.12;100.00
29549;BME280;16487;53.094;8.800;2022-12-18T02:08:07;102354.00;;;-6.14;100.00
29549;BME280;16487;53.094;8.800;2022-12-18T02:10:43;102349.56;;;-6.05;100.00
29549;BME280;16487;53.094;8.800;2022-12-18T02:13:19;102356.09;;;-6.06;100.00
29549;BME280;16487;53.094;8.800;2022-12-18T02:15:53;102349.03;;;-6.07;100.00
29549;BME280;16487;53.094;8.800;2022-12-18T02:18:26;102353.38;;;-6.06;100.00
29549;BME280;16487;53.094;8.800;2022-12-18T02:20:58;102358.28;;;-6.08;100.00
29549;BME280;16487;53.094;8.800;2022-12-18T02:23:45;102365.97;;;-6.15;100.00
29549;BME280;16487;53.094;8.800;2022-12-18T02:26:19;102365.38;;;-6.12;100.00
29549;BME280;16487;53.094;8.800;2022-12-18T02:28:53;102362.44;;;-6.16;100.00
29549;BME280;16487;53.094;8.800;2022-12-18T02:31:25;102361.84;;;-6.13;100.00
29549;BME280;16487;53.094;8.800;2022-12-18T02:33:56;102366.59;;;-6.23;100.00
29549;BME280;16487;53.094;8.800;2022-12-18T02:36:27;102367.19;;;-6.26;100.00
29549;BME280;16487;53.094;8.800;2022-12-18T02:38:56;102363.25;;;-6.15;100.00
29549;BME280;16487;53.094;8.800;2022-12-18T02:41:28;102362.75;;;-6.17;100.00
29549;BME280;16487;53.094;8.800;2022-12-18T02:44:00;102363.03;;;-6.19;100.00
29549;BME280;16487;53.094;8.800;2022-12-18T02:46:34;102363.78;;;-6.13;100.00
29549;BME280;16487;53.094;8.800;2022-12-18T02:49:19;102351.22;;;-6.09;100.00
29549;BME280;16487;53.094;8.800;2022-12-18T02:51:53;102358.59;;;-6.10;100.00
29549;BME280;16487;53.094;8.800;2022-12-18T02:54:27;102365.44;;;-6.17;100.00
29549;BME280;16487;53.094;8.800;2022-12-18T02:57:06;102374.13;;;-6.15;100.00
29549;BME280;16487;53.094;8.800;2022-12-18T02:59:42;102372.94;;;-6.09;100.00
29549;BME280;16487;53.094;8.800;2022-12-18T03:02:20;102376.53;;;-6.14;100.00
29549;BME280;16487;53.094;8.800;2022-12-18T03:04:55;102379.41;;;-6.05;100.00
29549;BME280;16487;53.094;8.800;2022-12-18T03:07:36;102388.19;;;-6.13;100.00
29549;BME280;16487;53.094;8.800;2022-12-18T03:10:12;102393.84;;;-6.10;100.00
29549;BME280;16487;53.094;8.800;2022-12-18T03:12:45;102391.94;;;-6.09;100.00
29549;BME280;16487;53.094;8.800;2022-12-18T03:15:17;102391.63;;;-6.08;100.00
29549;BME280;16487;53.094;8.800;2022-12-18T03:17:54;102397.41;;;-6.14;100.00
29549;BME280;16487;53.094;8.800;2022-12-18T03:20:29;102396.28;;;-6.08;100.00
29549;BME280;16487;53.094;8.800;2022-12-18T03:23:04;102401.09;;;-6.05;100.00
29549;BME280;16487;53.094;8.800;2022-12-18T03:25:36;102397.59;;;-6.06;100.00
29549;BME280;16487;53.094;8.800;2022-12-18T03:28:10;102409.31;;;-6.10;100.00
29549;BME280;16487;53.094;8.800;2022-12-18T03:30:41;102409.31;;;-6.10;100.00
29549;BME280;16487;53.094;8.800;2022-12-18T03:33:14;102407.41;;;-6.10;100.00
29549;BME280;16487;53.094;8.800;2022-12-18T03:35:45;102405.50;;;-6.09;100.00
29549;BME280;16487;53.094;8.800;2022-12-18T03:38:13;102415.78;;;-6.06;100.00
29549;BME280;16487;53.094;8.800;2022-12-18T03:40:53;102409.19;;;-6.00;100.00
29549;BME280;16487;53.094;8.800;2022-12-18T03:43:35;102410.00;;;-6.00;100.00
29549;BME280;16487;53.094;8.800;2022-12-18T03:46:14;102416.78;;;-6.02;100.00
29549;BME280;16487;53.094;8.800;2022-12-18T03:48:46;102429.28;;;-6.01;100.00
29549;BME280;16487;53.094;8.800;2022-12-18T03:51:23;102436.31;;;-6.00;100.00
29549;BME280;16487;53.094;8.800;2022-12-18T03:53:55;102450.19;;;-6.02;100.00
29549;BME280;16487;53.094;8.800;2022-12-18T03:56:33;102448.56;;;-6.03;100.00
29549;BME280;16487;53.094;8.800;2022-12-18T03:59:04;102456.75;;;-6.08;100.00
29549;BME280;16487;53.094;8.800;2022-12-18T04:01:35;102447.81;;;-6.08;100.00
29549;BME280;16487;53.094;8.800;2022-12-18T04:04:05;102441.06;;;-6.11;100.00
29549;BME280;16487;53.094;8.800;2022-12-18T04:06:37;102428.84;;;-6.08;100.00
29549;BME280;16487;53.094;8.800;2022-12-18T04:09:07;102521.09;;;-6.08;100.00
29549;BME280;16487;53.094;8.800;2022-12-18T04:11:39;102520.72;;;-6.02;100.00
29549;BME280;16487;53.094;8.800;2022-12-18T04:14:08;102516.13;;;-6.01;100.00
29549;BME280;16487;53.094;8.800;2022-12-18T04:16:42;102516.72;;;-6.09;100.00
29549;BME280;16487;53.094;8.800;2022-12-18T04:19:12;102521.63;;;-6.11;100.00
29549;BME280;16487;53.094;8.800;2022-12-18T04:21:42;102517.56;;;-6.09;100.00
29549;BME280;16487;53.094;8.800;2022-12-18T04:24:11;102526.56;;;-6.13;100.00
29549;BME280;16487;53.094;8.800;2022-12-18T04:26:43;102522.44;;;-6.11;100.00
29549;BME280;16487;53.094;8.800;2022-12-18T04:29:18;102533.53;;;-6.07;100.00
29549;BME280;16487;53.094;8.800;2022-12-18T04:31:47;102527.28;;;-6.08;100.00
29549;BME280;16487;53.094;8.800;2022-12-18T04:34:15;102545.78;;;-6.10;100.00
29549;BME280;16487;53.094;8.800;2022-12-18T04:36:48;102544.41;;;-6.07;100.00
29549;BME280;16487;53.094;8.800;2022-12-18T04:39:16;102547.75;;;-6.15;100.00
29549;BME280;16487;53.094;8.800;2022-12-18T04:41:44;102543.91;;;-6.14;100.00
29549;BME280;16487;53.094;8.800;2022-12-18T04:44:13;102542.25;;;-6.10;100.00
29549;BME280;16487;53.094;8.800;2022-12-18T04:46:41;102548.56;;;-6.15;100.00
29549;BME280;16487;53.094;8.800;2022-12-18T04:49:09;102553.75;;;-6.18;100.00
29549;BME280;16487;53.094;8.800;2022-12-18T04:51:36;102554.78;;;-6.14;100.00
29549;BME280;16487;53.094;8.800;2022-12-18T04:54:04;102553.69;;;-6.13;100.00
29549;BME280;16487;53.094;8.800;2022-12-18T04:56:31;102546.53;;;-6.04;100.00
29549;BME280;16487;53.094;8.800;2022-12-18T04:58:59;102560.16;;;-6.09;100.00
29549;BME280;16487;53.094;8.800;2022-12-18T05:01:26;102562.06;;;-6.10;100.00
29549;BME280;16487;53.094;8.800;2022-12-18T05:04:02;102559.63;;;-6.11;100.00
29549;BME280;16487;53.094;8.800;2022-12-18T05:06:30;102565.03;;;-6.11;100.00
29549;BME280;16487;53.094;8.800;2022-12-18T05:08:57;102578.13;;;-6.13;100.00
29549;BME280;16487;53.094;8.800;2022-12-18T05:11:24;102574.94;;;-6.20;100.00
29549;BME280;16487;53.094;8.800;2022-12-18T05:13:52;102580.88;;;-6.18;100.00
29549;BME280;16487;53.094;8.800;2022-12-18T05:16:22;102578.72;;;-6.21;100.00
29549;BME280;16487;53.094;8.800;2022-12-18T05:18:49;102587.38;;;-6.19;100.00
29549;BME280;16487;53.094;8.800;2022-12-18T05:21:18;102589.53;;;-6.16;100.00
29549;BME280;16487;53.094;8.800;2022-12-18T05:23:45;102594.94;;;-6.16;100.00
29549;BME280;16487;53.094;8.800;2022-12-18T05:26:16;102601.81;;;-6.24;100.00
29549;BME280;16487;53.094;8.800;2022-12-18T05:28:44;102604.28;;;-6.27;100.00
29549;BME280;16487;53.094;8.800;2022-12-18T05:31:12;102609.47;;;-6.31;100.00
29549;BME280;16487;53.094;8.800;2022-12-18T05:33:39;102621.09;;;-6.30;100.00
29549;BME280;16487;53.094;8.800;2022-12-18T05:36:08;102624.69;;;-6.35;100.00
29549;BME280;16487;53.094;8.800;2022-12-18T05:38:38;102620.94;;;-6.44;100.00
29549;BME280;16487;53.094;8.800;2022-12-18T05:41:07;102625.06;;;-6.46;100.00
29549;BME280;16487;53.094;8.800;2022-12-18T05:43:35;102628.34;;;-6.49;100.00
29549;BME280;16487;53.094;8.800;2022-12-18T05:46:04;102629.94;;;-6.48;100.00
29549;BME280;16487;53.094;8.800;2022-12-18T05:48:32;102621.81;;;-6.48;100.00
29549;BME280;16487;53.094;8.800;2022-12-18T05:51:04;102617.50;;;-6.49;100.00
29549;BME280;16487;53.094;8.800;2022-12-18T05:53:32;102616.38;;;-6.48;100.00
29549;BME280;16487;53.094;8.800;2022-12-18T05:56:02;102611.75;;;-6.43;100.00
29549;BME280;16487;53.094;8.800;2022-12-18T05:58:30;102612.88;;;-6.49;100.00
29549;BME280;16487;53.094;8.800;2022-12-18T06:01:05;102612.28;;;-6.46;100.00
29549;BME280;16487;53.094;8.800;2022-12-18T06:03:33;102614.25;;;-6.51;100.00
29549;BME280;16487;53.094;8.800;2022-12-18T06:06:01;102613.91;;;-6.45;100.00
29549;BME280;16487;53.094;8.800;2022-12-18T06:08:28;102610.69;;;-6.47;100.00
29549;BME280;16487;53.094;8.800;2022-12-18T06:10:55;102613.69;;;-6.48;100.00
29549;BME280;16487;53.094;8.800;2022-12-18T06:13:24;102612.06;;;-6.49;100.00
29549;BME280;16487;53.094;8.800;2022-12-18T06:15:51;102627.78;;;-6.46;100.00
29549;BME280;16487;53.094;8.800;2022-12-18T06:18:19;102628.88;;;-6.52;100.00
29549;BME280;16487;53.094;8.800;2022-12-18T06:20:54;102636.50;;;-6.54;100.00
29549;BME280;16487;53.094;8.800;2022-12-18T06:23:22;102638.13;;;-6.53;100.00
29549;BME280;16487;53.094;8.800;2022-12-18T06:25:49;102628.88;;;-6.52;100.00
29549;BME280;16487;53.094;8.800;2022-12-18T06:28:16;102634.31;;;-6.52;100.00
29549;BME280;16487;53.094;8.800;2022-12-18T06:30:46;102635.41;;;-6.53;100.00
29549;BME280;16487;53.094;8.800;2022-12-18T06:33:14;102637.03;;;-6.52;100.00
29549;BME280;16487;53.094;8.800;2022-12-18T06:35:41;102628.59;;;-6.51;100.00
29549;BME280;16487;53.094;8.800;2022-12-18T06:38:09;102632.09;;;-6.45;100.00
29549;BME280;16487;53.094;8.800;2022-12-18T06:40:37;102630.78;;;-6.48;100.00
29549;BME280;16487;53.094;8.800;2022-12-18T06:43:05;102633.47;;;-6.48;100.00
29549;BME280;16487;53.094;8.800;2022-12-18T06:45:32;102627.53;;;-6.50;100.00
29549;BME280;16487;53.094;8.800;2022-12-18T06:48:01;102636.72;;;-6.51;100.00
29549;BME280;16487;53.094;8.800;2022-12-18T06:50:28;102633.47;;;-6.48;100.00
29549;BME280;16487;53.094;8.800;2022-12-18T06:52:56;102647.31;;;-6.49;100.00
29549;BME280;16487;53.094;8.800;2022-12-18T06:55:23;102650.25;;;-6.46;100.00
29549;BME280;16487;53.094;8.800;2022-12-18T06:57:50;102654.56;;;-6.40;100.00
29549;BME280;16487;53.094;8.800;2022-12-18T07:00:18;102658.13;;;-6.44;100.00
29549;BME280;16487;53.094;8.800;2022-12-18T07:02:45;102663.31;;;-6.48;100.00
29549;BME280;16487;53.094;8.800;2022-12-18T07:05:14;102652.19;;;-6.46;100.00
29549;BME280;16487;53.094;8.800;2022-12-18T07:07:41;102658.66;;;-6.47;100.00
29549;BME280;16487;53.094;8.800;2022-12-18T07:10:09;102662.50;;;-6.48;100.00
29549;BME280;16487;53.094;8.800;2022-12-18T07:12:36;102664.16;;;-6.57;100.00
29549;BME280;16487;53.094;8.800;2022-12-18T07:15:05;102672.84;;;-6.55;100.00
29549;BME280;16487;53.094;8.800;2022-12-18T07:17:32;102671.72;;;-6.54;100.00
29549;BME280;16487;53.094;8.800;2022-12-18T07:19:59;102668.41;;;-6.41;100.00
29549;BME280;16487;53.094;8.800;2022-12-18T07:22:28;102718.59;;;-6.44;100.00
29549;BME280;16487;53.094;8.800;2022-12-18T07:24:55;102722.66;;;-6.41;100.00
29549;BME280;16487;53.094;8.800;2022-12-18T07:27:23;102722.31;;;-6.35;100.00
29549;BME280;16487;53.094;8.800;2022-12-18T07:29:50;102721.81;;;-6.42;100.00
29549;BME280;16487;53.094;8.800;2022-12-18T07:32:17;102726.19;;;-6.46;100.00
29549;BME280;16487;53.094;8.800;2022-12-18T07:34:45;102724.81;;;-6.43;100.00
29549;BME280;16487;53.094;8.800;2022-12-18T07:37:13;102741.09;;;-6.43;100.00
29549;BME280;16487;53.094;8.800;2022-12-18T07:39:42;102728.94;;;-6.51;100.00
29549;BME280;16487;53.094;8.800;2022-12-18T07:42:09;102732.19;;;-6.49;100.00
29549;BME280;16487;53.094;8.800;2022-12-18T07:44:39;102733.03;;;-6.53;100.00
29549;BME280;16487;53.094;8.800;2022-12-18T07:47:06;102721.06;;;-6.52;100.00
29549;BME280;16487;53.094;8.800;2022-12-18T07:49:38;102719.47;;;-6.53;100.00
29549;BME280;16487;53.094;8.800;2022-12-18T07:52:05;102714.03;;;-6.53;100.00
29549;BME280;16487;53.094;8.800;2022-12-18T07:54:32;102723.53;;;-6.56;100.00
29549;BME280;16487;53.094;8.800;2022-12-18T07:57:01;102720.53;;;-6.49;100.00
29549;BME280;16487;53.094;8.800;2022-12-18T07:59:28;102723.75;;;-6.47;100.00
29549;BME280;16487;53.094;8.800;2022-12-18T08:01:55;102717.78;;;-6.44;100.00
29549;BME280;16487;53.094;8.800;2022-12-18T08:04:23;102715.63;;;-6.47;100.00
29549;BME280;16487;53.094;8.800;2022-12-18T08:06:50;102709.91;;;-6.46;100.00
29549;BME280;16487;53.094;8.800;2022-12-18T08:09:18;102708.31;;;-6.47;100.00
29549;BME280;16487;53.094;8.800;2022-12-18T08:11:45;102714.28;;;-6.50;100.00
29549;BME280;16487;53.094;8.800;2022-12-18T08:14:14;102710.50;;;-6.54;100.00
29549;BME280;16487;53.094;8.800;2022-12-18T08:16:41;102713.47;;;-6.50;100.00
29549;BME280;16487;53.094;8.800;2022-12-18T08:19:12;102711.88;;;-6.51;100.00
29549;BME280;16487;53.094;8.800;2022-12-18T08:21:42;102714.00;;;-6.48;100.00
29549;BME280;16487;53.094;8.800;2022-12-18T08:24:09;102711.56;;;-6.45;100.00
29549;BME280;16487;53.094;8.800;2022-12-18T08:26:37;102721.59;;;-6.50;100.00
29549;BME280;16487;53.094;8.800;2022-12-18T08:29:04;102718.59;;;-6.44;100.00
29549;BME280;16487;53.094;8.800;2022-12-18T08:31:33;102713.97;;;-6.43;100.00
29549;BME280;16487;53.094;8.800;2022-12-18T08:34:00;102711.75;;;-6.36;100.00
29549;BME280;16487;53.094;8.800;2022-12-18T08:36:27;102724.22;;;-6.35;100.00
29549;BME280;16487;53.094;8.800;2022-12-18T08:38:56;102712.78;;;-6.27;100.00
29549;BME280;16487;53.094;8.800;2022-12-18T08:41:23;102725.75;;;-6.19;100.00
29549;BME280;16487;53.094;8.800;2022-12-18T08:43:51;102721.09;;;-6.14;100.00
29549;BME280;16487;53.094;8.800;2022-12-18T08:46:19;102712.06;;;-6.04;100.00
29549;BME280;16487;53.094;8.800;2022-12-18T08:48:50;102711.03;;;-6.08;100.00
29549;BME280;16487;53.094;8.800;2022-12-18T08:51:18;102696.34;;;-6.07;100.00
29549;BME280;16487;53.094;8.800;2022-12-18T08:53:46;102700.06;;;-5.98;100.00
29549;BME280;16487;53.094;8.800;2022-12-18T08:56:14;102690.75;;;-5.87;100.00
29549;BME280;16487;53.094;8.800;2022-12-18T08:58:41;102687.38;;;-5.79;100.00
29549;BME280;16487;53.094;8.800;2022-12-18T09:01:11;102679.78;;;-5.77;100.00
29549;BME280;16487;53.094;8.800;2022-12-18T09:03:39;102690.63;;;-5.77;100.00
29549;BME280;16487;53.094;8.800;2022-12-18T09:06:08;102683.16;;;-5.61;100.00
29549;BME280;16487;53.094;8.800;2022-12-18T09:08:36;102685.81;;;-5.56;100.00
29549;BME280;16487;53.094;8.800;2022-12-18T09:11:03;102683.75;;;-5.41;100.00
29549;BME280;16487;53.094;8.800;2022-12-18T09:13:31;102698.88;;;-5.35;100.00
29549;BME280;16487;53.094;8.800;2022-12-18T09:15:58;102691.13;;;-5.23;100.00
29549;BME280;16487;53.094;8.800;2022-12-18T09:18:25;102707.88;;;-5.16;100.00
29549;BME280;16487;53.094;8.800;2022-12-18T09:20:53;102702.47;;;-5.16;100.00
29549;BME280;16487;53.094;8.800;2022-12-18T09:23:21;102710.22;;;-5.04;100.00
29549;BME280;16487;53.094;8.800;2022-12-18T09:25:49;102710.03;;;-4.89;100.00
29549;BME280;16487;53.094;8.800;2022-12-18T09:28:18;102723.97;;;-4.96;100.00
29549;BME280;16487;53.094;8.800;2022-12-18T09:30:46;102723.09;;;-4.91;100.00
29549;BME280;16487;53.094;8.800;2022-12-18T09:33:14;102725.44;;;-4.85;100.00
29549;BME280;16487;53.094;8.800;2022-12-18T09:35:43;102738.97;;;-4.80;100.00
29549;BME280;16487;53.094;8.800;2022-12-18T09:38:13;102747.50;;;-4.62;100.00
29549;BME280;16487;53.094;8.800;2022-12-18T09:40:44;102737.09;;;-4.60;100.00
29549;BME280;16487;53.094;8.800;2022-12-18T09:43:17;102744.09;;;-4.73;100.00
29549;BME280;16487;53.094;8.800;2022-12-18T09:45:48;102754.53;;;-4.61;100.00
29549;BME280;16487;53.094;8.800;2022-12-18T09:48:23;102756.56;;;-4.48;100.00
29549;BME280;16487;53.094;8.800;2022-12-18T09:50:51;102759.75;;;-4.46;100.00
29549;BME280;16487;53.094;8.800;2022-12-18T09:53:24;102773.25;;;-4.36;100.00
29549;BME280;16487;53.094;8.800;2022-12-18T09:55:55;102777.81;;;-4.32;100.00
29549;BME280;16487;53.094;8.800;2022-12-18T09:58:27;102780.81;;;-4.33;100.00
29549;BME280;16487;53.094;8.800;2022-12-18T10:00:56;102788.84;;;-4.42;100.00
29549;BME280;16487;53.094;8.800;2022-12-18T10:03:24;102786.03;;;-4.37;100.00
29549;BME280;16487;53.094;8.800;2022-12-18T10:06:00;102761.53;;;-4.18;100.00
29549;BME280;16487;53.094;8.800;2022-12-18T10:08:35;102767.94;;;-4.09;100.00
29549;BME280;16487;53.094;8.800;2022-12-18T10:11:25;102769.47;;;-4.03;100.00
29549;BME280;16487;53.094;8.800;2022-12-18T10:13:58;102781.03;;;-4.11;100.00
29549;BME280;16487;53.094;8.800;2022-12-18T10:16:34;102780.47;;;-3.90;100.00
29549;BME280;16487;53.094;8.800;2022-12-18T10:19:18;102784.56;;;-3.92;100.00
29549;BME280;16487;53.094;8.800;2022-12-18T10:21:51;102769.44;;;-3.66;100.00
29549;BME280;16487;53.094;8.800;2022-12-18T10:24:28;102770.63;;;-3.72;100.00
29549;BME280;16487;53.094;8.800;2022-12-18T10:27:12;102767.84;;;-3.67;100.00
29549;BME280;16487;53.094;8.800;2022-12-18T10:29:41;102769.22;;;-3.70;100.00
29549;BME280;16487;53.094;8.800;2022-12-18T10:32:13;102761.78;;;-3.64;100.00
29549;BME280;16487;53.094;8.800;2022-12-18T10:34:45;102770.75;;;-3.64;100.00
29549;BME280;16487;53.094;8.800;2022-12-18T10:37:15;102798.50;;;-3.62;100.00
29549;BME280;16487;53.094;8.800;2022-12-18T10:39:43;102798.38;;;-3.70;100.00
29549;BME280;16487;53.094;8.800;2022-12-18T10:42:17;102789.88;;;-3.50;100.00
29549;BME280;16487;53.094;8.800;2022-12-18T10:44:45;102796.28;;;-3.60;100.00
29549;BME280;16487;53.094;8.800;2022-12-18T10:47:15;102791.25;;;-3.66;100.00
29549;BME280;16487;53.094;8.800;2022-12-18T10:49:49;102800.59;;;-3.72;100.00
29549;BME280;16487;53.094;8.800;2022-12-18T10:52:18;102796.50;;;-3.56;100.00
29549;BME280;16487;53.094;8.800;2022-12-18T10:54:50;102791.31;;;-3.39;100.00
29549;BME280;16487;53.094;8.800;2022-12-18T10:57:32;102779.88;;;-3.09;100.00
29549;BME280;16487;53.094;8.800;2022-12-18T11:00:20;102788.66;;;-3.12;100.00
29549;BME280;16487;53.094;8.800;2022-12-18T11:02:48;102783.97;;;-3.25;100.00
29549;BME280;16487;53.094;8.800;2022-12-18T11:05:28;102769.06;;;-3.14;100.00
29549;BME280;16487;53.094;8.800;2022-12-18T11:07:56;102763.50;;;-3.09;100.00
29549;BME280;16487;53.094;8.800;2022-12-18T11:10:28;102757.13;;;-2.91;100.00
29549;BME280;16487;53.094;8.800;2022-12-18T11:13:09;102758.97;;;-3.00;100.00
29549;BME280;16487;53.094;8.800;2022-12-18T11:15:40;102762.41;;;-2.67;100.00
29549;BME280;16487;53.094;8.800;2022-12-18T11:18:16;102739.31;;;-2.12;100.00
29549;BME280;16487;53.094;8.800;2022-12-18T11:20:50;102731.28;;;-1.42;100.00
29549;BME280;16487;53.094;8.800;2022-12-18T11:23:25;102735.94;;;-1.12;100.00
29549;BME280;16487;53.094;8.800;2022-12-18T11:25:55;102755.94;;;-1.34;100.00
29549;BME280;16487;53.094;8.800;2022-12-18T11:28:39;102763.47;;;-1.08;100.00
29549;BME280;16487;53.094;8.800;2022-12-18T11:31:16;102763.53;;;-0.44;100.00
29549;BME280;16487;53.094;8.800;2022-12-18T11:33:50;102771.69;;;-0.69;100.00
29549;BME280;16487;53.094;8.800;2022-12-18T11:36:42;102765.50;;;0.96;100.00
29549;BME280;16487;53.094;8.800;2022-12-18T11:39:17;102769.38;;;1.82;100.00
29549;BME280;16487;53.094;8.800;2022-12-18T11:41:50;102795.53;;;1.30;100.00
29549;BME280;16487;53.094;8.800;2022-12-18T11:44:25;102793.00;;;1.83;100.00
29549;BME280;16487;53.094;8.800;2022-12-18T11:46:59;102795.53;;;1.68;100.00
29549;BME280;16487;53.094;8.800;2022-12-18T11:49:33;102801.22;;;1.63;100.00
29549;BME280;16487;53.094;8.800;2022-12-18T11:52:04;102808.25;;;1.43;100.00
29549;BME280;16487;53.094;8.800;2022-12-18T11:54:35;102803.88;;;1.42;100.00
29549;BME280;16487;53.094;8.800;2022-12-18T11:57:10;102811.94;;;0.55;100.00
29549;BME280;16487;53.094;8.800;2022-12-18T11:59:50;102817.28;;;0.26;100.00
29549;BME280;16487;53.094;8.800;2022-12-18T12:02:35;102816.28;;;0.05;100.00
29549;BME280;16487;53.094;8.800;2022-12-18T12:05:19;102805.44;;;0.68;100.00
29549;BME280;16487;53.094;8.800;2022-12-18T12:07:54;102810.97;;;0.17;100.00
29549;BME280;16487;53.094;8.800;2022-12-18T12:10:36;102811.13;;;-0.14;100.00
29549;BME280;16487;53.094;8.800;2022-12-18T12:13:22;102808.50;;;-0.28;100.00
29549;BME280;16487;53.094;8.800;2022-12-18T12:16:02;102800.94;;;-0.05;100.00
29549;BME280;16487;53.094;8.800;2022-12-18T12:18:38;102802.78;;;-0.57;100.00
29549;BME280;16487;53.094;8.800;2022-12-18T12:21:12;102800.38;;;-0.58;100.00
29549;BME280;16487;53.094;8.800;2022-12-18T12:23:47;102801.53;;;-0.90;100.00
29549;BME280;16487;53.094;8.800;2022-12-18T12:26:24;102786.81;;;-1.11;100.00
29549;BME280;16487;53.094;8.800;2022-12-18T12:29:01;102781.91;;;-1.23;100.00
29549;BME280;16487;53.094;8.800;2022-12-18T12:31:50;102784.44;;;-1.26;100.00
29549;BME280;16487;53.094;8.800;2022-12-18T12:34:23;102766.44;;;-1.27;100.00
29549;BME280;16487;53.094;8.800;2022-12-18T12:37:03;102758.63;;;-1.42;100.00
29549;BME280;16487;53.094;8.800;2022-12-18T12:39:54;102742.97;;;-1.50;100.00
29549;BME280;16487;53.094;8.800;2022-12-18T12:42:28;102727.44;;;-1.41;100.00
29549;BME280;16487;53.094;8.800;2022-12-18T12:44:58;102726.56;;;-1.50;100.00
29549;BME280;16487;53.094;8.800;2022-12-18T12:47:32;102744.91;;;-1.51;100.00
29549;BME280;16487;53.094;8.800;2022-12-18T12:50:03;102736.63;;;-1.59;100.00
29549;BME280;16487;53.094;8.800;2022-12-18T12:52:54;102722.50;;;-1.61;100.00
29549;BME280;16487;53.094;8.800;2022-12-18T12:55:26;102710.31;;;-1.55;100.00
29549;BME280;16487;53.094;8.800;2022-12-18T12:57:59;102712.25;;;-1.47;100.00
29549;BME280;16487;53.094;8.800;2022-12-18T13:00:35;102707.19;;;-1.62;100.00